sensor_id;sensor_type;location;lat;lon;timestamp;P1;durP1;ratioP1;P2;durP2;ratioP2
65658;SDS011;60181;53.258;6.932;2023-05-10T00:03:56;11.30;;;5.90;;
65658;SDS011;60181;53.258;6.932;2023-05-10T00:07:59;12.10;;;6.30;;
65658;SDS011;60181;53.258;6.932;2023-05-10T00:12:04;12.10;;;6.30;;
65658;SDS011;60181;53.258;6.932;2023-05-10T00:16:07;12.10;;;6.30;;
65658;SDS011;60181;53.258;6.932;2023-05-10T00:20:11;12.50;;;7.10;;
65658;SDS011;60181;53.258;6.932;2023-05-10T00:24:15;12.50;;;7.10;;
65658;SDS011;60181;53.258;6.932;2023-05-10T00:28:19;12.30;;;6.80;;
65658;SDS011;60181;53.258;6.932;2023-05-10T00:32:23;12.30;;;6.80;;
65658;SDS011;60181;53.258;6.932;2023-05-10T00:36:27;12.30;;;6.80;;
65658;SDS011;60181;53.258;6.932;2023-05-10T00:40:31;11.80;;;7.10;;
65658;SDS011;60181;53.258;6.932;2023-05-10T00:44:35;11.80;;;7.10;;
65658;SDS011;60181;53.258;6.932;2023-05-10T00:48:39;9.90;;;6.00;;
65658;SDS011;60181;53.258;6.932;2023-05-10T00:52:43;9.90;;;6.00;;
65658;SDS011;60181;53.258;6.932;2023-05-10T00:56:47;9.90;;;6.00;;
65658;SDS011;60181;53.258;6.932;2023-05-10T01:00:51;9.50;;;5.90;;
65658;SDS011;60181;53.258;6.932;2023-05-10T01:04:55;9.50;;;5.90;;
65658;SDS011;60181;53.258;6.932;2023-05-10T01:08:59;10.60;;;6.00;;
65658;SDS011;60181;53.258;6.932;2023-05-10T01:13:03;10.60;;;6.00;;
65658;SDS011;60181;53.258;6.932;2023-05-10T01:17:07;10.60;;;6.00;;
65658;SDS011;60181;53.258;6.932;2023-05-10T01:21:17;10.40;;;6.30;;
65658;SDS011;60181;53.258;6.932;2023-05-10T01:33:27;10.00;;;6.00;;
65658;SDS011;60181;53.258;6.932;2023-05-10T01:37:47;9.90;;;6.20;;
65658;SDS011;60181;53.258;6.932;2023-05-10T01:41:54;9.90;;;6.20;;
65658;SDS011;60181;53.258;6.932;2023-05-10T01:45:45;9.90;;;6.20;;
65658;SDS011;60181;53.258;6.932;2023-05-10T01:53:44;9.60;;;6.20;;
65658;SDS011;60181;53.258;6.932;2023-05-10T01:57:47;10.00;;;6.00;;
65658;SDS011;60181;53.258;6.932;2023-05-10T02:01:51;10.00;;;6.00;;
65658;SDS011;60181;53.258;6.932;2023-05-10T02:05:55;10.00;;;6.00;;
65658;SDS011;60181;53.258;6.932;2023-05-10T02:09:59;11.50;;;6.00;;
65658;SDS011;60181;53.258;6.932;2023-05-10T02:14:03;11.50;;;6.00;;
65658;SDS011;60181;53.258;6.932;2023-05-10T02:18:07;10.60;;;6.10;;
65658;SDS011;60181;53.258;6.932;2023-05-10T02:22:11;10.60;;;6.10;;
65658;SDS011;60181;53.258;6.932;2023-05-10T02:26:15;10.60;;;6.10;;
65658;SDS011;60181;53.258;6.932;2023-05-10T02:30:19;9.40;;;5.70;;
65658;SDS011;60181;53.258;6.932;2023-05-10T02:34:25;9.40;;;5.70;;
65658;SDS011;60181;53.258;6.932;2023-05-10T02:38:27;10.20;;;6.10;;
65658;SDS011;60181;53.258;6.932;2023-05-10T02:42:32;10.20;;;6.10;;
65658;SDS011;60181;53.258;6.932;2023-05-10T02:46:35;10.20;;;6.10;;
65658;SDS011;60181;53.258;6.932;2023-05-10T02:50:39;9.50;;;5.70;;
65658;SDS011;60181;53.258;6.932;2023-05-10T02:54:44;9.50;;;5.70;;
65658;SDS011;60181;53.258;6.932;2023-05-10T02:58:47;8.70;;;5.50;;
65658;SDS011;60181;53.258;6.932;2023-05-10T03:02:52;8.70;;;5.50;;
65658;SDS011;60181;53.258;6.932;2023-05-10T03:06:55;8.70;;;5.50;;
65658;SDS011;60181;53.258;6.932;2023-05-10T03:11:04;9.00;;;5.60;;
65658;SDS011;60181;53.258;6.932;2023-05-10T03:15:06;9.00;;;5.60;;
65658;SDS011;60181;53.258;6.932;2023-05-10T03:19:12;10.40;;;5.60;;
65658;SDS011;60181;53.258;6.932;2023-05-10T03:27:15;8.30;;;5.00;;
65658;SDS011;60181;53.258;6.932;2023-05-10T03:31:19;8.30;;;5.00;;
65658;SDS011;60181;53.258;6.932;2023-05-10T03:35:23;8.30;;;5.00;;
65658;SDS011;60181;53.258;6.932;2023-05-10T03:39:27;14.40;;;5.70;;
65658;SDS011;60181;53.258;6.932;2023-05-10T03:43:31;14.40;;;5.70;;
65658;SDS011;60181;53.258;6.932;2023-05-10T03:47:35;12.70;;;6.20;;
65658;SDS011;60181;53.258;6.932;2023-05-10T03:51:39;12.70;;;6.20;;
65658;SDS011;60181;53.258;6.932;2023-05-10T03:55:43;12.70;;;6.20;;
65658;SDS011;60181;53.258;6.932;2023-05-10T03:59:47;10.70;;;6.50;;
65658;SDS011;60181;53.258;6.932;2023-05-10T04:03:51;10.70;;;6.50;;
65658;SDS011;60181;53.258;6.932;2023-05-10T04:07:55;10.60;;;6.50;;
65658;SDS011;60181;53.258;6.932;2023-05-10T04:11:59;10.60;;;6.50;;
65658;SDS011;60181;53.258;6.932;2023-05-10T04:16:03;10.60;;;6.50;;
65658;SDS011;60181;53.258;6.932;2023-05-10T04:20:07;11.40;;;6.80;;
65658;SDS011;60181;53.258;6.932;2023-05-10T04:24:11;11.40;;;6.80;;
65658;SDS011;60181;53.258;6.932;2023-05-10T04:28:15;12.40;;;6.80;;
65658;SDS011;60181;53.258;6.932;2023-05-10T04:32:19;12.40;;;6.80;;
65658;SDS011;60181;53.258;6.932;2023-05-10T04:36:23;12.40;;;6.80;;
65658;SDS011;60181;53.258;6.932;2023-05-10T04:40:27;13.00;;;7.50;;
65658;SDS011;60181;53.258;6.932;2023-05-10T04:44:31;13.00;;;7.50;;
65658;SDS011;60181;53.258;6.932;2023-05-10T04:48:35;11.60;;;6.40;;
65658;SDS011;60181;53.258;6.932;2023-05-10T04:52:39;11.60;;;6.40;;
65658;SDS011;60181;53.258;6.932;2023-05-10T04:56:43;11.60;;;6.40;;
65658;SDS011;60181;53.258;6.932;2023-05-10T05:00:47;12.40;;;6.60;;
65658;SDS011;60181;53.258;6.932;2023-05-10T05:04:51;12.40;;;6.60;;
65658;SDS011;60181;53.258;6.932;2023-05-10T05:08:55;14.70;;;7.30;;
65658;SDS011;60181;53.258;6.932;2023-05-10T05:12:59;14.70;;;7.30;;
65658;SDS011;60181;53.258;6.932;2023-05-10T05:17:03;14.70;;;7.30;;
65658;SDS011;60181;53.258;6.932;2023-05-10T05:21:13;14.80;;;7.40;;
65658;SDS011;60181;53.258;6.932;2023-05-10T05:25:11;14.80;;;7.40;;
65658;SDS011;60181;53.258;6.932;2023-05-10T05:29:15;12.80;;;6.70;;
65658;SDS011;60181;53.258;6.932;2023-05-10T05:33:19;12.80;;;6.70;;
65658;SDS011;60181;53.258;6.932;2023-05-10T05:37:23;9.90;;;5.40;;
65658;SDS011;60181;53.258;6.932;2023-05-10T05:41:27;9.90;;;5.40;;
65658;SDS011;60181;53.258;6.932;2023-05-10T05:45:31;9.90;;;5.40;;
65658;SDS011;60181;53.258;6.932;2023-05-10T05:49:35;7.90;;;4.60;;
65658;SDS011;60181;53.258;6.932;2023-05-10T05:53:39;7.90;;;4.60;;
65658;SDS011;60181;53.258;6.932;2023-05-10T05:57:43;6.40;;;3.60;;
65658;SDS011;60181;53.258;6.932;2023-05-10T06:01:47;6.40;;;3.60;;
65658;SDS011;60181;53.258;6.932;2023-05-10T06:05:51;6.40;;;3.60;;
65658;SDS011;60181;53.258;6.932;2023-05-10T06:09:55;4.90;;;3.00;;
65658;SDS011;60181;53.258;6.932;2023-05-10T06:13:59;4.90;;;3.00;;
65658;SDS011;60181;53.258;6.932;2023-05-10T06:18:03;4.50;;;2.80;;
65658;SDS011;60181;53.258;6.932;2023-05-10T06:22:07;4.50;;;2.80;;
65658;SDS011;60181;53.258;6.932;2023-05-10T06:26:11;4.50;;;2.80;;
65658;SDS011;60181;53.258;6.932;2023-05-10T06:30:15;3.20;;;2.30;;
65658;SDS011;60181;53.258;6.932;2023-05-10T06:34:19;3.20;;;2.30;;
65658;SDS011;60181;53.258;6.932;2023-05-10T06:38:23;3.90;;;2.20;;
65658;SDS011;60181;53.258;6.932;2023-05-10T06:42:27;3.90;;;2.20;;
65658;SDS011;60181;53.258;6.932;2023-05-10T06:46:31;3.90;;;2.20;;
65658;SDS011;60181;53.258;6.932;2023-05-10T06:50:35;2.60;;;1.70;;
65658;SDS011;60181;53.258;6.932;2023-05-10T06:54:39;2.60;;;1.70;;
65658;SDS011;60181;53.258;6.932;2023-05-10T06:58:43;2.40;;;1.50;;
65658;SDS011;60181;53.258;6.932;2023-05-10T07:02:47;2.40;;;1.50;;
65658;SDS011;60181;53.258;6.932;2023-05-10T07:06:51;2.40;;;1.50;;
65658;SDS011;60181;53.258;6.932;2023-05-10T07:11:01;2.30;;;1.40;;
65658;SDS011;60181;53.258;6.932;2023-05-10T07:14:59;2.30;;;1.40;;
65658;SDS011;60181;53.258;6.932;2023-05-10T07:19:03;3.20;;;1.20;;
65658;SDS011;60181;53.258;6.932;2023-05-10T07:23:07;3.20;;;1.20;;
65658;SDS011;60181;53.258;6.932;2023-05-10T07:27:11;3.20;;;1.20;;
65658;SDS011;60181;53.258;6.932;2023-05-10T07:31:15;3.40;;;1.60;;
65658;SDS011;60181;53.258;6.932;2023-05-10T07:35:19;3.40;;;1.60;;
65658;SDS011;60181;53.258;6.932;2023-05-10T07:39:23;4.30;;;1.80;;
65658;SDS011;60181;53.258;6.932;2023-05-10T07:43:27;4.30;;;1.80;;
65658;SDS011;60181;53.258;6.932;2023-05-10T07:47:31;4.70;;;1.80;;
65658;SDS011;60181;53.258;6.932;2023-05-10T07:51:35;4.70;;;1.80;;
65658;SDS011;60181;53.258;6.932;2023-05-10T07:55:39;4.70;;;1.80;;
65658;SDS011;60181;53.258;6.932;2023-05-10T07:59:43;4.90;;;1.80;;
65658;SDS011;60181;53.258;6.932;2023-05-10T08:03:47;4.90;;;1.80;;
65658;SDS011;60181;53.258;6.932;2023-05-10T08:07:51;4.10;;;1.80;;
65658;SDS011;60181;53.258;6.932;2023-05-10T08:11:55;4.10;;;1.80;;
65658;SDS011;60181;53.258;6.932;2023-05-10T08:15:59;4.10;;;1.80;;
65658;SDS011;60181;53.258;6.932;2023-05-10T08:20:03;3.70;;;1.70;;
65658;SDS011;60181;53.258;6.932;2023-05-10T08:24:07;3.70;;;1.70;;
65658;SDS011;60181;53.258;6.932;2023-05-10T08:28:11;3.00;;;1.90;;
65658;SDS011;60181;53.258;6.932;2023-05-10T08:32:15;3.00;;;1.90;;
65658;SDS011;60181;53.258;6.932;2023-05-10T08:36:19;3.00;;;1.90;;
65658;SDS011;60181;53.258;6.932;2023-05-10T08:40:23;3.40;;;1.90;;
65658;SDS011;60181;53.258;6.932;2023-05-10T08:44:27;3.40;;;1.90;;
65658;SDS011;60181;53.258;6.932;2023-05-10T08:48:31;8.90;;;2.30;;
65658;SDS011;60181;53.258;6.932;2023-05-10T08:52:36;8.90;;;2.30;;
65658;SDS011;60181;53.258;6.932;2023-05-10T08:56:39;8.90;;;2.30;;
65658;SDS011;60181;53.258;6.932;2023-05-10T09:00:43;6.20;;;2.80;;
65658;SDS011;60181;53.258;6.932;2023-05-10T09:04:47;6.20;;;2.80;;
65658;SDS011;60181;53.258;6.932;2023-05-10T09:08:51;6.10;;;2.70;;
65658;SDS011;60181;53.258;6.932;2023-05-10T09:12:56;6.10;;;2.70;;
65658;SDS011;60181;53.258;6.932;2023-05-10T09:16:59;6.10;;;2.70;;
65658;SDS011;60181;53.258;6.932;2023-05-10T09:21:03;5.30;;;2.60;;
65658;SDS011;60181;53.258;6.932;2023-05-10T09:25:07;5.30;;;2.60;;
65658;SDS011;60181;53.258;6.932;2023-05-10T09:29:11;5.60;;;2.70;;
65658;SDS011;60181;53.258;6.932;2023-05-10T09:33:15;5.60;;;2.70;;
65658;SDS011;60181;53.258;6.932;2023-05-10T09:37:19;8.20;;;3.10;;
65658;SDS011;60181;53.258;6.932;2023-05-10T09:41:23;8.20;;;3.10;;
65658;SDS011;60181;53.258;6.932;2023-05-10T09:45:28;8.20;;;3.10;;
65658;SDS011;60181;53.258;6.932;2023-05-10T09:49:31;8.10;;;2.70;;
65658;SDS011;60181;53.258;6.932;2023-05-10T09:53:35;8.10;;;2.70;;
65658;SDS011;60181;53.258;6.932;2023-05-10T09:57:39;6.00;;;2.80;;
65658;SDS011;60181;53.258;6.932;2023-05-10T10:01:43;6.00;;;2.80;;
65658;SDS011;60181;53.258;6.932;2023-05-10T10:05:47;6.00;;;2.80;;
65658;SDS011;60181;53.258;6.932;2023-05-10T10:09:51;4.30;;;2.40;;
65658;SDS011;60181;53.258;6.932;2023-05-10T10:13:55;4.30;;;2.40;;
65658;SDS011;60181;53.258;6.932;2023-05-10T10:17:59;5.70;;;2.50;;
65658;SDS011;60181;53.258;6.932;2023-05-10T10:22:03;5.70;;;2.50;;
65658;SDS011;60181;53.258;6.932;2023-05-10T10:26:07;5.70;;;2.50;;
65658;SDS011;60181;53.258;6.932;2023-05-10T10:34:32;4.60;;;2.60;;
65658;SDS011;60181;53.258;6.932;2023-05-10T10:38:19;4.30;;;2.50;;
65658;SDS011;60181;53.258;6.932;2023-05-10T10:42:43;4.30;;;2.50;;
65658;SDS011;60181;53.258;6.932;2023-05-10T10:46:27;4.30;;;2.50;;
65658;SDS011;60181;53.258;6.932;2023-05-10T10:50:31;6.30;;;2.70;;
65658;SDS011;60181;53.258;6.932;2023-05-10T10:54:35;6.30;;;2.70;;
65658;SDS011;60181;53.258;6.932;2023-05-10T10:58:39;4.30;;;2.80;;
65658;SDS011;60181;53.258;6.932;2023-05-10T11:02:52;4.30;;;2.80;;
65658;SDS011;60181;53.258;6.932;2023-05-10T11:06:47;4.30;;;2.80;;
65658;SDS011;60181;53.258;6.932;2023-05-10T11:11:03;4.80;;;2.90;;
65658;SDS011;60181;53.258;6.932;2023-05-10T11:14:56;4.80;;;2.90;;
65658;SDS011;60181;53.258;6.932;2023-05-10T11:19:02;8.10;;;3.60;;
65658;SDS011;60181;53.258;6.932;2023-05-10T11:23:12;8.10;;;3.60;;
65658;SDS011;60181;53.258;6.932;2023-05-10T11:27:07;8.10;;;3.60;;
65658;SDS011;60181;53.258;6.932;2023-05-10T11:31:13;4.80;;;2.80;;
65658;SDS011;60181;53.258;6.932;2023-05-10T11:35:15;4.80;;;2.80;;
65658;SDS011;60181;53.258;6.932;2023-05-10T11:39:19;5.00;;;2.80;;
65658;SDS011;60181;53.258;6.932;2023-05-10T11:43:23;5.00;;;2.80;;
65658;SDS011;60181;53.258;6.932;2023-05-10T11:47:26;5.70;;;3.30;;
65658;SDS011;60181;53.258;6.932;2023-05-10T11:51:32;5.70;;;3.30;;
65658;SDS011;60181;53.258;6.932;2023-05-10T11:55:34;5.70;;;3.30;;
65658;SDS011;60181;53.258;6.932;2023-05-10T11:59:38;5.70;;;3.10;;
65658;SDS011;60181;53.258;6.932;2023-05-10T12:03:42;5.70;;;3.10;;
65658;SDS011;60181;53.258;6.932;2023-05-10T12:07:46;5.30;;;3.00;;
65658;SDS011;60181;53.258;6.932;2023-05-10T12:11:50;5.30;;;3.00;;
65658;SDS011;60181;53.258;6.932;2023-05-10T12:15:57;5.30;;;3.00;;
65658;SDS011;60181;53.258;6.932;2023-05-10T12:20:12;5.10;;;3.00;;
65658;SDS011;60181;53.258;6.932;2023-05-10T12:24:03;5.10;;;3.00;;
65658;SDS011;60181;53.258;6.932;2023-05-10T12:28:07;5.90;;;2.90;;
65658;SDS011;60181;53.258;6.932;2023-05-10T12:32:10;5.90;;;2.90;;
65658;SDS011;60181;53.258;6.932;2023-05-10T12:36:15;5.90;;;2.90;;
65658;SDS011;60181;53.258;6.932;2023-05-10T12:40:18;6.50;;;3.10;;
65658;SDS011;60181;53.258;6.932;2023-05-10T12:44:23;6.50;;;3.10;;
65658;SDS011;60181;53.258;6.932;2023-05-10T12:48:26;5.60;;;3.10;;
65658;SDS011;60181;53.258;6.932;2023-05-10T12:52:31;5.60;;;3.10;;
65658;SDS011;60181;53.258;6.932;2023-05-10T12:56:34;5.60;;;3.10;;
65658;SDS011;60181;53.258;6.932;2023-05-10T13:00:38;5.40;;;3.10;;
65658;SDS011;60181;53.258;6.932;2023-05-10T13:04:42;5.40;;;3.10;;
65658;SDS011;60181;53.258;6.932;2023-05-10T13:08:46;7.00;;;3.70;;
65658;SDS011;60181;53.258;6.932;2023-05-10T13:12:51;7.00;;;3.70;;
65658;SDS011;60181;53.258;6.932;2023-05-10T13:16:54;7.00;;;3.70;;
65658;SDS011;60181;53.258;6.932;2023-05-10T13:20:58;6.00;;;3.50;;
65658;SDS011;60181;53.258;6.932;2023-05-10T13:25:02;6.00;;;3.50;;
65658;SDS011;60181;53.258;6.932;2023-05-10T13:29:07;5.50;;;3.20;;
65658;SDS011;60181;53.258;6.932;2023-05-10T13:33:10;5.50;;;3.20;;
65658;SDS011;60181;53.258;6.932;2023-05-10T13:37:14;7.30;;;3.70;;
65658;SDS011;60181;53.258;6.932;2023-05-10T13:41:18;7.30;;;3.70;;
65658;SDS011;60181;53.258;6.932;2023-05-10T13:45:22;7.30;;;3.70;;
65658;SDS011;60181;53.258;6.932;2023-05-10T13:49:26;6.90;;;3.70;;
65658;SDS011;60181;53.258;6.932;2023-05-10T13:53:30;6.90;;;3.70;;
65658;SDS011;60181;53.258;6.932;2023-05-10T13:57:34;5.90;;;3.50;;
65658;SDS011;60181;53.258;6.932;2023-05-10T14:01:38;5.90;;;3.50;;
65658;SDS011;60181;53.258;6.932;2023-05-10T14:05:42;5.90;;;3.50;;
65658;SDS011;60181;53.258;6.932;2023-05-10T14:09:46;6.40;;;3.60;;
65658;SDS011;60181;53.258;6.932;2023-05-10T14:13:50;6.40;;;3.60;;
65658;SDS011;60181;53.258;6.932;2023-05-10T14:17:54;6.60;;;3.80;;
65658;SDS011;60181;53.258;6.932;2023-05-10T14:21:58;6.60;;;3.80;;
65658;SDS011;60181;53.258;6.932;2023-05-10T14:26:02;6.60;;;3.80;;
65658;SDS011;60181;53.258;6.932;2023-05-10T14:30:07;7.00;;;3.80;;
65658;SDS011;60181;53.258;6.932;2023-05-10T14:34:10;7.00;;;3.80;;
65658;SDS011;60181;53.258;6.932;2023-05-10T14:38:14;6.50;;;3.60;;
65658;SDS011;60181;53.258;6.932;2023-05-10T14:42:18;6.50;;;3.60;;
65658;SDS011;60181;53.258;6.932;2023-05-10T14:46:22;6.50;;;3.60;;
65658;SDS011;60181;53.258;6.932;2023-05-10T14:50:26;5.40;;;3.50;;
65658;SDS011;60181;53.258;6.932;2023-05-10T14:54:30;5.40;;;3.50;;
65658;SDS011;60181;53.258;6.932;2023-05-10T14:58:34;6.70;;;3.90;;
65658;SDS011;60181;53.258;6.932;2023-05-10T15:02:38;6.70;;;3.90;;
65658;SDS011;60181;53.258;6.932;2023-05-10T15:06:42;6.70;;;3.90;;
65658;SDS011;60181;53.258;6.932;2023-05-10T15:10:46;7.90;;;4.40;;
65658;SDS011;60181;53.258;6.932;2023-05-10T15:14:50;7.90;;;4.40;;
65658;SDS011;60181;53.258;6.932;2023-05-10T15:18:54;10.30;;;6.10;;
65658;SDS011;60181;53.258;6.932;2023-05-10T15:22:58;10.30;;;6.10;;
65658;SDS011;60181;53.258;6.932;2023-05-10T15:27:02;10.30;;;6.10;;
65658;SDS011;60181;53.258;6.932;2023-05-10T15:31:06;9.40;;;5.70;;
65658;SDS011;60181;53.258;6.932;2023-05-10T15:35:10;9.40;;;5.70;;
65658;SDS011;60181;53.258;6.932;2023-05-10T15:39:14;12.60;;;7.00;;
65658;SDS011;60181;53.258;6.932;2023-05-10T15:43:18;12.60;;;7.00;;
65658;SDS011;60181;53.258;6.932;2023-05-10T15:47:22;19.50;;;8.10;;
65658;SDS011;60181;53.258;6.932;2023-05-10T15:51:26;19.50;;;8.10;;
65658;SDS011;60181;53.258;6.932;2023-05-10T15:55:30;19.50;;;8.10;;
65658;SDS011;60181;53.258;6.932;2023-05-10T15:59:34;14.80;;;7.90;;
65658;SDS011;60181;53.258;6.932;2023-05-10T16:03:38;14.80;;;7.90;;
65658;SDS011;60181;53.258;6.932;2023-05-10T16:07:42;18.00;;;7.70;;
65658;SDS011;60181;53.258;6.932;2023-05-10T16:11:46;18.00;;;7.70;;
65658;SDS011;60181;53.258;6.932;2023-05-10T16:15:50;18.00;;;7.70;;
65658;SDS011;60181;53.258;6.932;2023-05-10T16:19:54;18.40;;;7.60;;
65658;SDS011;60181;53.258;6.932;2023-05-10T16:23:59;18.40;;;7.60;;
65658;SDS011;60181;53.258;6.932;2023-05-10T16:28:02;19.00;;;8.10;;
65658;SDS011;60181;53.258;6.932;2023-05-10T16:32:06;19.00;;;8.10;;
65658;SDS011;60181;53.258;6.932;2023-05-10T16:36:10;19.00;;;8.10;;
65658;SDS011;60181;53.258;6.932;2023-05-10T16:40:14;18.50;;;8.20;;
65658;SDS011;60181;53.258;6.932;2023-05-10T16:44:18;18.50;;;8.20;;
65658;SDS011;60181;53.258;6.932;2023-05-10T16:48:22;19.00;;;8.50;;
65658;SDS011;60181;53.258;6.932;2023-05-10T16:52:26;19.00;;;8.50;;
65658;SDS011;60181;53.258;6.932;2023-05-10T16:56:30;19.00;;;8.50;;
65658;SDS011;60181;53.258;6.932;2023-05-10T17:00:34;22.60;;;8.50;;
65658;SDS011;60181;53.258;6.932;2023-05-10T17:04:38;22.60;;;8.50;;
65658;SDS011;60181;53.258;6.932;2023-05-10T17:08:42;17.80;;;8.30;;
65658;SDS011;60181;53.258;6.932;2023-05-10T17:12:46;17.80;;;8.30;;
65658;SDS011;60181;53.258;6.932;2023-05-10T17:16:50;17.80;;;8.30;;
65658;SDS011;60181;53.258;6.932;2023-05-10T17:20:54;18.10;;;8.30;;
65658;SDS011;60181;53.258;6.932;2023-05-10T17:24:58;18.10;;;8.30;;
65658;SDS011;60181;53.258;6.932;2023-05-10T17:29:02;17.80;;;8.80;;
65658;SDS011;60181;53.258;6.932;2023-05-10T17:33:06;17.80;;;8.80;;
65658;SDS011;60181;53.258;6.932;2023-05-10T17:37:10;17.80;;;8.80;;
65658;SDS011;60181;53.258;6.932;2023-05-10T17:41:14;21.50;;;8.80;;
65658;SDS011;60181;53.258;6.932;2023-05-10T17:45:18;21.50;;;8.80;;
65658;SDS011;60181;53.258;6.932;2023-05-10T17:49:22;18.00;;;8.80;;
65658;SDS011;60181;53.258;6.932;2023-05-10T17:53:26;18.00;;;8.80;;
65658;SDS011;60181;53.258;6.932;2023-05-10T17:57:30;24.00;;;8.40;;
65658;SDS011;60181;53.258;6.932;2023-05-10T18:01:34;24.00;;;8.40;;
65658;SDS011;60181;53.258;6.932;2023-05-10T18:05:38;24.00;;;8.40;;
65658;SDS011;60181;53.258;6.932;2023-05-10T18:09:42;19.40;;;8.40;;
65658;SDS011;60181;53.258;6.932;2023-05-10T18:13:46;19.40;;;8.40;;
65658;SDS011;60181;53.258;6.932;2023-05-10T18:17:50;17.00;;;8.30;;
65658;SDS011;60181;53.258;6.932;2023-05-10T18:21:54;17.00;;;8.30;;
65658;SDS011;60181;53.258;6.932;2023-05-10T18:25:58;17.00;;;8.30;;
65658;SDS011;60181;53.258;6.932;2023-05-10T18:30:02;16.80;;;8.30;;
65658;SDS011;60181;53.258;6.932;2023-05-10T18:34:06;16.80;;;8.30;;
65658;SDS011;60181;53.258;6.932;2023-05-10T18:38:10;17.80;;;8.00;;
65658;SDS011;60181;53.258;6.932;2023-05-10T18:42:14;17.80;;;8.00;;
65658;SDS011;60181;53.258;6.932;2023-05-10T18:46:18;17.80;;;8.00;;
65658;SDS011;60181;53.258;6.932;2023-05-10T18:50:22;16.20;;;7.90;;
65658;SDS011;60181;53.258;6.932;2023-05-10T18:54:26;16.20;;;7.90;;
65658;SDS011;60181;53.258;6.932;2023-05-10T18:58:30;19.50;;;7.80;;
65658;SDS011;60181;53.258;6.932;2023-05-10T19:02:34;19.50;;;7.80;;
65658;SDS011;60181;53.258;6.932;2023-05-10T19:06:38;19.50;;;7.80;;
65658;SDS011;60181;53.258;6.932;2023-05-10T19:10:42;15.90;;;7.70;;
65658;SDS011;60181;53.258;6.932;2023-05-10T19:14:46;15.90;;;7.70;;
65658;SDS011;60181;53.258;6.932;2023-05-10T19:18:50;18.00;;;7.80;;
65658;SDS011;60181;53.258;6.932;2023-05-10T19:22:54;18.00;;;7.80;;
65658;SDS011;60181;53.258;6.932;2023-05-10T19:26:58;18.00;;;7.80;;
65658;SDS011;60181;53.258;6.932;2023-05-10T19:31:02;13.40;;;7.10;;
65658;SDS011;60181;53.258;6.932;2023-05-10T19:35:06;13.40;;;7.10;;
65658;SDS011;60181;53.258;6.932;2023-05-10T19:39:10;15.40;;;7.20;;
65658;SDS011;60181;53.258;6.932;2023-05-10T19:43:14;15.40;;;7.20;;
65658;SDS011;60181;53.258;6.932;2023-05-10T19:47:18;15.40;;;7.00;;
65658;SDS011;60181;53.258;6.932;2023-05-10T19:51:22;15.40;;;7.00;;
65658;SDS011;60181;53.258;6.932;2023-05-10T19:55:29;15.40;;;7.00;;
65658;SDS011;60181;53.258;6.932;2023-05-10T19:59:30;12.50;;;6.30;;
65658;SDS011;60181;53.258;6.932;2023-05-10T20:03:34;12.50;;;6.30;;
65658;SDS011;60181;53.258;6.932;2023-05-10T20:07:38;13.90;;;7.00;;
65658;SDS011;60181;53.258;6.932;2023-05-10T20:11:42;13.90;;;7.00;;
65658;SDS011;60181;53.258;6.932;2023-05-10T20:15:46;13.90;;;7.00;;
65658;SDS011;60181;53.258;6.932;2023-05-10T20:19:50;13.30;;;6.40;;
65658;SDS011;60181;53.258;6.932;2023-05-10T20:23:54;13.30;;;6.40;;
65658;SDS011;60181;53.258;6.932;2023-05-10T20:27:58;13.60;;;6.60;;
65658;SDS011;60181;53.258;6.932;2023-05-10T20:32:02;13.60;;;6.60;;
65658;SDS011;60181;53.258;6.932;2023-05-10T20:36:06;13.60;;;6.60;;
65658;SDS011;60181;53.258;6.932;2023-05-10T20:40:10;11.80;;;6.50;;
65658;SDS011;60181;53.258;6.932;2023-05-10T20:44:14;11.80;;;6.50;;
65658;SDS011;60181;53.258;6.932;2023-05-10T20:48:18;12.00;;;6.10;;
65658;SDS011;60181;53.258;6.932;2023-05-10T20:52:22;12.00;;;6.10;;
65658;SDS011;60181;53.258;6.932;2023-05-10T20:56:26;12.00;;;6.10;;
65658;SDS011;60181;53.258;6.932;2023-05-10T21:00:30;13.90;;;6.40;;
65658;SDS011;60181;53.258;6.932;2023-05-10T21:04:34;13.90;;;6.40;;
65658;SDS011;60181;53.258;6.932;2023-05-10T21:08:38;12.70;;;6.40;;
65658;SDS011;60181;53.258;6.932;2023-05-10T21:12:42;12.70;;;6.40;;
65658;SDS011;60181;53.258;6.932;2023-05-10T21:16:46;12.70;;;6.40;;
65658;SDS011;60181;53.258;6.932;2023-05-10T21:20:50;12.40;;;6.50;;
65658;SDS011;60181;53.258;6.932;2023-05-10T21:24:54;12.40;;;6.50;;
65658;SDS011;60181;53.258;6.932;2023-05-10T21:28:58;12.20;;;6.40;;
65658;SDS011;60181;53.258;6.932;2023-05-10T21:33:02;12.20;;;6.40;;
65658;SDS011;60181;53.258;6.932;2023-05-10T21:37:06;12.20;;;6.40;;
65658;SDS011;60181;53.258;6.932;2023-05-10T21:41:10;11.20;;;5.50;;
65658;SDS011;60181;53.258;6.932;2023-05-10T21:45:17;11.20;;;5.50;;
65658;SDS011;60181;53.258;6.932;2023-05-10T21:49:18;10.30;;;5.30;;
65658;SDS011;60181;53.258;6.932;2023-05-10T21:53:22;10.30;;;5.30;;
65658;SDS011;60181;53.258;6.932;2023-05-10T21:57:26;13.20;;;6.30;;
65658;SDS011;60181;53.258;6.932;2023-05-10T22:01:30;13.20;;;6.30;;
65658;SDS011;60181;53.258;6.932;2023-05-10T22:05:34;13.20;;;6.30;;
65658;SDS011;60181;53.258;6.932;2023-05-10T22:09:38;19.70;;;8.00;;
65658;SDS011;60181;53.258;6.932;2023-05-10T22:13:42;19.70;;;8.00;;
65658;SDS011;60181;53.258;6.932;2023-05-10T22:17:46;30.00;;;10.90;;
65658;SDS011;60181;53.258;6.932;2023-05-10T22:21:50;30.00;;;10.90;;
65658;SDS011;60181;53.258;6.932;2023-05-10T22:25:57;30.00;;;10.90;;
65658;SDS011;60181;53.258;6.932;2023-05-10T22:29:58;37.10;;;12.80;;
65658;SDS011;60181;53.258;6.932;2023-05-10T22:34:02;37.10;;;12.80;;
65658;SDS011;60181;53.258;6.932;2023-05-10T22:38:06;44.80;;;15.10;;
65658;SDS011;60181;53.258;6.932;2023-05-10T22:42:10;44.80;;;15.10;;
65658;SDS011;60181;53.258;6.932;2023-05-10T22:46:14;44.80;;;15.10;;
65658;SDS011;60181;53.258;6.932;2023-05-10T22:50:18;46.50;;;16.00;;
65658;SDS011;60181;53.258;6.932;2023-05-10T22:54:22;46.50;;;16.00;;
65658;SDS011;60181;53.258;6.932;2023-05-10T22:58:26;49.80;;;16.60;;
65658;SDS011;60181;53.258;6.932;2023-05-10T23:02:30;49.80;;;16.60;;
65658;SDS011;60181;53.258;6.932;2023-05-10T23:06:34;49.80;;;16.60;;
65658;SDS011;60181;53.258;6.932;2023-05-10T23:10:38;49.50;;;17.30;;
65658;SDS011;60181;53.258;6.932;2023-05-10T23:14:42;49.50;;;17.30;;
65658;SDS011;60181;53.258;6.932;2023-05-10T23:18:46;51.60;;;16.00;;
65658;SDS011;60181;53.258;6.932;2023-05-10T23:22:50;51.60;;;16.00;;
65658;SDS011;60181;53.258;6.932;2023-05-10T23:26:54;51.60;;;16.00;;
65658;SDS011;60181;53.258;6.932;2023-05-10T23:30:58;44.70;;;15.70;;
65658;SDS011;60181;53.258;6.932;2023-05-10T23:35:02;44.70;;;15.70;;
65658;SDS011;60181;53.258;6.932;2023-05-10T23:39:06;51.30;;;16.30;;
65658;SDS011;60181;53.258;6.932;2023-05-10T23:43:10;51.30;;;16.30;;
65658;SDS011;60181;53.258;6.932;2023-05-10T23:47:13;47.40;;;15.40;;
65658;SDS011;60181;53.258;6.932;2023-05-10T23:51:17;47.40;;;15.40;;
65658;SDS011;60181;53.258;6.932;2023-05-10T23:55:21;47.40;;;15.40;;
65658;SDS011;60181;53.258;6.932;2023-05-10T23:59:25;42.50;;;15.40;;
